sensor_id;sensor_type;location;lat;lon;timestamp;pressure;altitude;pressure_sealevel;temperature;humidity
4410;BME280;2218;51.408;7.208;2023-07-13T00:02:16;99664.03;;;25.53;46.80
4410;BME280;2218;51.408;7.208;2023-07-13T00:04:43;99668.38;;;25.55;46.92
4410;BME280;2218;51.408;7.208;2023-07-13T00:07:10;99663.22;;;25.53;47.00
4410;BME280;2218;51.408;7.208;2023-07-13T00:09:40;99666.72;;;25.53;47.04
4410;BME280;2218;51.408;7.208;2023-07-13T00:12:23;99662.38;;;25.52;46.96
4410;BME280;2218;51.408;7.208;2023-07-13T00:14:51;99665.03;;;25.52;46.81
4410;BME280;2218;51.408;7.208;2023-07-13T00:17:19;99661.53;;;25.52;46.95
4410;BME280;2218;51.408;7.208;2023-07-13T00:19:46;99664.22;;;25.52;46.93
4410;BME280;2218;51.408;7.208;2023-07-13T00:22:13;99660.72;;;25.51;46.85
4410;BME280;2218;51.408;7.208;2023-07-13T00:24:40;99667.00;;;25.50;46.89
4410;BME280;2218;51.408;7.208;2023-07-13T00:27:08;99666.16;;;25.50;47.26
4410;BME280;2218;51.408;7.208;2023-07-13T00:29:35;99658.19;;;25.50;46.92
4410;BME280;2218;51.408;7.208;2023-07-13T00:32:04;99660.00;;;25.49;46.90
4410;BME280;2218;51.408;7.208;2023-07-13T00:34:33;99668.81;;;25.50;46.75
4410;BME280;2218;51.408;7.208;2023-07-13T00:37:00;99667.97;;;25.49;46.77
4410;BME280;2218;51.408;7.208;2023-07-13T00:39:27;99662.66;;;25.49;46.82
4410;BME280;2218;51.408;7.208;2023-07-13T00:41:54;99665.47;;;25.48;46.78
4410;BME280;2218;51.408;7.208;2023-07-13T00:44:21;99658.50;;;25.47;46.65
4410;BME280;2218;51.408;7.208;2023-07-13T00:46:50;99665.47;;;25.48;46.83
4410;BME280;2218;51.408;7.208;2023-07-13T00:49:21;99664.66;;;25.47;46.94
4410;BME280;2218;51.408;7.208;2023-07-13T00:51:55;99661.28;;;25.45;46.66
4410;BME280;2218;51.408;7.208;2023-07-13T00:54:29;99662.09;;;25.46;46.63
4410;BME280;2218;51.408;7.208;2023-07-13T00:57:01;99657.66;;;25.46;46.84
4410;BME280;2218;51.408;7.208;2023-07-13T00:59:30;99663.09;;;25.45;46.70
4410;BME280;2218;51.408;7.208;2023-07-13T01:01:58;99660.44;;;25.45;46.38
4410;BME280;2218;51.408;7.208;2023-07-13T01:04:26;99657.78;;;25.45;46.57
4410;BME280;2218;51.408;7.208;2023-07-13T01:06:56;99660.44;;;25.45;46.58
4410;BME280;2218;51.408;7.208;2023-07-13T01:09:26;99647.28;;;25.43;46.47
4410;BME280;2218;51.408;7.208;2023-07-13T01:11:53;99654.44;;;25.43;46.46
4410;BME280;2218;51.408;7.208;2023-07-13T01:14:20;99651.78;;;25.43;46.60
4410;BME280;2218;51.408;7.208;2023-07-13T01:16:49;99646.47;;;25.43;46.47
4410;BME280;2218;51.408;7.208;2023-07-13T01:19:43;99650.94;;;25.42;46.47
4410;BME280;2218;51.408;7.208;2023-07-13T01:22:15;99654.44;;;25.43;46.34
4410;BME280;2218;51.408;7.208;2023-07-13T01:24:47;99645.63;;;25.42;46.73
4410;BME280;2218;51.408;7.208;2023-07-13T01:27:19;99643.09;;;25.41;46.62
4410;BME280;2218;51.408;7.208;2023-07-13T01:29:47;99652.91;;;25.40;46.55
4410;BME280;2218;51.408;7.208;2023-07-13T01:32:18;99651.22;;;25.39;46.41
4410;BME280;2218;51.408;7.208;2023-07-13T01:34:48;99652.06;;;25.40;46.70
4410;BME280;2218;51.408;7.208;2023-07-13T01:37:18;99650.41;;;25.39;46.15
4410;BME280;2218;51.408;7.208;2023-07-13T01:39:44;99649.56;;;25.38;46.15
4410;BME280;2218;51.408;7.208;2023-07-13T01:42:12;99648.56;;;25.39;46.41
4410;BME280;2218;51.408;7.208;2023-07-13T01:44:40;99652.38;;;25.37;46.40
4410;BME280;2218;51.408;7.208;2023-07-13T01:47:07;99643.41;;;25.38;46.36
4410;BME280;2218;51.408;7.208;2023-07-13T01:49:34;99653.22;;;25.37;46.35
4410;BME280;2218;51.408;7.208;2023-07-13T01:52:02;99656.72;;;25.38;46.46
4410;BME280;2218;51.408;7.208;2023-07-13T01:54:31;99651.53;;;25.36;46.39
4410;BME280;2218;51.408;7.208;2023-07-13T01:56:59;99652.50;;;25.35;46.43
4410;BME280;2218;51.408;7.208;2023-07-13T01:59:26;99655.03;;;25.37;46.40
4410;BME280;2218;51.408;7.208;2023-07-13T02:01:53;99661.31;;;25.36;46.17
4410;BME280;2218;51.408;7.208;2023-07-13T02:04:20;99661.47;;;25.34;46.15
4410;BME280;2218;51.408;7.208;2023-07-13T02:06:47;99656.16;;;25.34;46.03
4410;BME280;2218;51.408;7.208;2023-07-13T02:09:15;99664.13;;;25.34;46.17
4410;BME280;2218;51.408;7.208;2023-07-13T02:11:44;99664.13;;;25.34;46.14
4410;BME280;2218;51.408;7.208;2023-07-13T02:14:10;99657.31;;;25.32;46.10
4410;BME280;2218;51.408;7.208;2023-07-13T02:16:37;99659.81;;;25.33;46.28
4410;BME280;2218;51.408;7.208;2023-07-13T02:19:04;99652.81;;;25.32;46.14
4410;BME280;2218;51.408;7.208;2023-07-13T02:21:32;99650.16;;;25.32;46.42
4410;BME280;2218;51.408;7.208;2023-07-13T02:23:59;99655.75;;;25.29;46.32
4410;BME280;2218;51.408;7.208;2023-07-13T02:26:27;99659.25;;;25.30;46.32
4410;BME280;2218;51.408;7.208;2023-07-13T02:28:56;99657.44;;;25.30;46.35
4410;BME280;2218;51.408;7.208;2023-07-13T02:31:23;99662.91;;;25.29;46.34
4410;BME280;2218;51.408;7.208;2023-07-13T02:33:49;99659.41;;;25.28;46.21
4410;BME280;2218;51.408;7.208;2023-07-13T02:36:18;99656.75;;;25.28;46.32
4410;BME280;2218;51.408;7.208;2023-07-13T02:38:45;99652.41;;;25.27;46.48
4410;BME280;2218;51.408;7.208;2023-07-13T02:41:12;99655.09;;;25.27;46.34
4410;BME280;2218;51.408;7.208;2023-07-13T02:43:40;99656.91;;;25.26;46.26
4410;BME280;2218;51.408;7.208;2023-07-13T02:46:10;99664.88;;;25.26;46.28
4410;BME280;2218;51.408;7.208;2023-07-13T02:48:39;99662.34;;;25.25;46.34
4410;BME280;2218;51.408;7.208;2023-07-13T02:51:07;99652.53;;;25.25;46.66
4410;BME280;2218;51.408;7.208;2023-07-13T02:53:34;99643.72;;;25.25;46.40
4410;BME280;2218;51.408;7.208;2023-07-13T02:56:02;99649.06;;;25.25;46.42
4410;BME280;2218;51.408;7.208;2023-07-13T02:58:29;99654.38;;;25.25;45.92
4410;BME280;2218;51.408;7.208;2023-07-13T03:00:56;99651.88;;;25.23;46.33
4410;BME280;2218;51.408;7.208;2023-07-13T03:03:26;99661.66;;;25.23;46.13
4410;BME280;2218;51.408;7.208;2023-07-13T03:06:00;99661.66;;;25.23;46.32
4410;BME280;2218;51.408;7.208;2023-07-13T03:08:33;99660.84;;;25.22;46.35
4410;BME280;2218;51.408;7.208;2023-07-13T03:11:02;99674.97;;;25.23;46.35
4410;BME280;2218;51.408;7.208;2023-07-13T03:13:32;99665.31;;;25.22;46.67
4410;BME280;2218;51.408;7.208;2023-07-13T03:15:59;99665.31;;;25.22;46.35
4410;BME280;2218;51.408;7.208;2023-07-13T03:18:28;99659.28;;;25.20;46.39
4410;BME280;2218;51.408;7.208;2023-07-13T03:20:57;99664.59;;;25.20;46.44
4410;BME280;2218;51.408;7.208;2023-07-13T03:23:25;99670.91;;;25.19;46.36
4410;BME280;2218;51.408;7.208;2023-07-13T03:26:02;99672.59;;;25.20;46.31
4410;BME280;2218;51.408;7.208;2023-07-13T03:28:31;99675.25;;;25.20;46.57
4410;BME280;2218;51.408;7.208;2023-07-13T03:31:06;99672.59;;;25.20;46.39
4410;BME280;2218;51.408;7.208;2023-07-13T03:33:36;99670.09;;;25.18;46.69
4410;BME280;2218;51.408;7.208;2023-07-13T03:36:06;99671.06;;;25.17;46.41
4410;BME280;2218;51.408;7.208;2023-07-13T03:38:34;99680.88;;;25.17;46.48
4410;BME280;2218;51.408;7.208;2023-07-13T03:41:03;99676.50;;;25.16;46.27
4410;BME280;2218;51.408;7.208;2023-07-13T03:43:30;99687.16;;;25.16;46.67
4410;BME280;2218;51.408;7.208;2023-07-13T03:45:57;99681.84;;;25.16;46.63
4410;BME280;2218;51.408;7.208;2023-07-13T03:48:24;99694.19;;;25.17;46.70
4410;BME280;2218;51.408;7.208;2023-07-13T03:50:52;99690.81;;;25.15;46.63
4410;BME280;2218;51.408;7.208;2023-07-13T03:53:19;99690.81;;;25.15;46.61
4410;BME280;2218;51.408;7.208;2023-07-13T03:55:46;99691.63;;;25.15;46.69
4410;BME280;2218;51.408;7.208;2023-07-13T03:58:32;99695.13;;;25.16;46.42
4410;BME280;2218;51.408;7.208;2023-07-13T04:01:10;99690.81;;;25.15;46.75
4410;BME280;2218;51.408;7.208;2023-07-13T04:03:39;99698.09;;;25.13;46.66
4410;BME280;2218;51.408;7.208;2023-07-13T04:06:14;99711.41;;;25.13;46.62
4410;BME280;2218;51.408;7.208;2023-07-13T04:08:48;99700.59;;;25.14;46.66
4410;BME280;2218;51.408;7.208;2023-07-13T04:11:16;99703.41;;;25.13;46.44
4410;BME280;2218;51.408;7.208;2023-07-13T04:13:44;99701.75;;;25.12;46.73
4410;BME280;2218;51.408;7.208;2023-07-13T04:16:11;99714.06;;;25.13;47.00
4410;BME280;2218;51.408;7.208;2023-07-13T04:18:38;99705.38;;;25.11;46.74
4410;BME280;2218;51.408;7.208;2023-07-13T04:21:09;99711.41;;;25.13;46.66
4410;BME280;2218;51.408;7.208;2023-07-13T04:23:36;99709.72;;;25.12;46.59
4410;BME280;2218;51.408;7.208;2023-07-13T04:26:04;99708.75;;;25.13;46.63
4410;BME280;2218;51.408;7.208;2023-07-13T04:28:32;99712.38;;;25.12;46.58
4410;BME280;2218;51.408;7.208;2023-07-13T04:31:00;99717.72;;;25.12;46.55
4410;BME280;2218;51.408;7.208;2023-07-13T04:33:27;99721.31;;;25.11;47.03
4410;BME280;2218;51.408;7.208;2023-07-13T04:35:56;99713.22;;;25.12;46.55
4410;BME280;2218;51.408;7.208;2023-07-13T04:38:28;99716.00;;;25.11;46.65
4410;BME280;2218;51.408;7.208;2023-07-13T04:40:57;99731.00;;;25.12;46.68
4410;BME280;2218;51.408;7.208;2023-07-13T04:43:25;99725.69;;;25.12;46.73
4410;BME280;2218;51.408;7.208;2023-07-13T04:45:53;99722.19;;;25.11;46.62
4410;BME280;2218;51.408;7.208;2023-07-13T04:48:20;99720.38;;;25.12;46.71
4410;BME280;2218;51.408;7.208;2023-07-13T04:50:54;99724.69;;;25.13;46.57
4410;BME280;2218;51.408;7.208;2023-07-13T04:53:21;99733.66;;;25.12;46.70
4410;BME280;2218;51.408;7.208;2023-07-13T04:55:50;99723.03;;;25.12;46.58
4410;BME280;2218;51.408;7.208;2023-07-13T04:58:17;99725.81;;;25.10;46.72
4410;BME280;2218;51.408;7.208;2023-07-13T05:00:44;99721.31;;;25.11;46.58
4410;BME280;2218;51.408;7.208;2023-07-13T05:03:11;99723.97;;;25.11;46.61
4410;BME280;2218;51.408;7.208;2023-07-13T05:05:38;99727.19;;;25.14;46.62
4410;BME280;2218;51.408;7.208;2023-07-13T05:08:05;99726.09;;;25.17;46.62
4410;BME280;2218;51.408;7.208;2023-07-13T05:10:33;99731.81;;;25.22;46.58
4410;BME280;2218;51.408;7.208;2023-07-13T05:13:01;99733.88;;;25.28;46.41
4410;BME280;2218;51.408;7.208;2023-07-13T05:15:29;99740.59;;;25.32;46.26
4410;BME280;2218;51.408;7.208;2023-07-13T05:17:55;99733.59;;;25.31;46.32
4410;BME280;2218;51.408;7.208;2023-07-13T05:20:22;99742.56;;;25.30;46.28
4410;BME280;2218;51.408;7.208;2023-07-13T05:22:49;99747.34;;;25.26;46.42
4410;BME280;2218;51.408;7.208;2023-07-13T05:25:16;99743.81;;;25.26;46.46
4410;BME280;2218;51.408;7.208;2023-07-13T05:27:43;99756.16;;;25.27;46.41
4410;BME280;2218;51.408;7.208;2023-07-13T05:30:14;99741.88;;;25.28;46.32
4410;BME280;2218;51.408;7.208;2023-07-13T05:32:41;99742.84;;;25.27;46.48
4410;BME280;2218;51.408;7.208;2023-07-13T05:35:08;99752.50;;;25.28;46.32
4410;BME280;2218;51.408;7.208;2023-07-13T05:37:37;99755.31;;;25.26;46.36
4410;BME280;2218;51.408;7.208;2023-07-13T05:40:06;99749.28;;;25.24;46.46
4410;BME280;2218;51.408;7.208;2023-07-13T05:42:34;99753.78;;;25.24;46.33
4410;BME280;2218;51.408;7.208;2023-07-13T05:45:01;99764.41;;;25.24;46.43
4410;BME280;2218;51.408;7.208;2023-07-13T05:47:30;99758.25;;;25.23;46.33
4410;BME280;2218;51.408;7.208;2023-07-13T05:49:56;99761.91;;;25.22;46.45
4410;BME280;2218;51.408;7.208;2023-07-13T05:52:24;99752.94;;;25.23;46.42
4410;BME280;2218;51.408;7.208;2023-07-13T05:54:51;99760.91;;;25.23;46.43
4410;BME280;2218;51.408;7.208;2023-07-13T05:57:18;99765.41;;;25.23;46.34
4410;BME280;2218;51.408;7.208;2023-07-13T05:59:44;99764.41;;;25.24;46.37
4410;BME280;2218;51.408;7.208;2023-07-13T06:02:11;99756.44;;;25.24;46.30
4410;BME280;2218;51.408;7.208;2023-07-13T06:04:40;99768.63;;;25.26;46.25
4410;BME280;2218;51.408;7.208;2023-07-13T06:07:07;99766.66;;;25.29;46.39
4410;BME280;2218;51.408;7.208;2023-07-13T06:09:34;99779.78;;;25.30;46.23
4410;BME280;2218;51.408;7.208;2023-07-13T06:12:01;99780.50;;;25.32;46.27
4410;BME280;2218;51.408;7.208;2023-07-13T06:14:27;99784.84;;;25.33;46.49
4410;BME280;2218;51.408;7.208;2023-07-13T06:16:54;99783.69;;;25.36;46.12
4410;BME280;2218;51.408;7.208;2023-07-13T06:19:21;99788.19;;;25.35;46.57
4410;BME280;2218;51.408;7.208;2023-07-13T06:21:50;99782.03;;;25.35;46.30
4410;BME280;2218;51.408;7.208;2023-07-13T06:24:17;99782.84;;;25.35;46.27
4410;BME280;2218;51.408;7.208;2023-07-13T06:26:43;99781.03;;;25.36;46.30
4410;BME280;2218;51.408;7.208;2023-07-13T06:29:10;99777.53;;;25.35;46.06
4410;BME280;2218;51.408;7.208;2023-07-13T06:31:37;99780.19;;;25.35;46.10
4410;BME280;2218;51.408;7.208;2023-07-13T06:34:04;99776.28;;;25.39;45.93
4410;BME280;2218;51.408;7.208;2023-07-13T06:36:31;99787.63;;;25.41;46.15
4410;BME280;2218;51.408;7.208;2023-07-13T06:38:59;99791.00;;;25.05;45.45
4410;BME280;2218;51.408;7.208;2023-07-13T06:41:27;99791.00;;;24.46;45.53
4410;BME280;2218;51.408;7.208;2023-07-13T06:43:54;99798.13;;;24.56;45.55
4410;BME280;2218;51.408;7.208;2023-07-13T06:46:22;99790.03;;;24.86;43.99
4410;BME280;2218;51.408;7.208;2023-07-13T06:48:49;99794.09;;;24.90;43.83
4410;BME280;2218;51.408;7.208;2023-07-13T06:51:16;99790.44;;;25.01;43.53
4410;BME280;2218;51.408;7.208;2023-07-13T06:53:43;99798.56;;;24.61;44.66
4410;BME280;2218;51.408;7.208;2023-07-13T06:56:12;99800.38;;;24.70;44.60
4410;BME280;2218;51.408;7.208;2023-07-13T06:58:39;99803.88;;;24.51;45.13
4410;BME280;2218;51.408;7.208;2023-07-13T07:01:05;99805.88;;;24.78;44.26
4410;BME280;2218;51.408;7.208;2023-07-13T07:03:32;99808.38;;;24.70;44.63
4410;BME280;2218;51.408;7.208;2023-07-13T07:06:16;99811.34;;;24.27;45.50
4410;BME280;2218;51.408;7.208;2023-07-13T07:08:43;99829.38;;;24.23;45.96
4410;BME280;2218;51.408;7.208;2023-07-13T07:11:17;99820.38;;;24.55;44.95
4410;BME280;2218;51.408;7.208;2023-07-13T07:13:44;99828.34;;;24.05;46.00
4410;BME280;2218;51.408;7.208;2023-07-13T07:16:11;99831.72;;;24.16;46.03
4410;BME280;2218;51.408;7.208;2023-07-13T07:18:38;99822.81;;;24.27;45.24
4410;BME280;2218;51.408;7.208;2023-07-13T07:21:05;99831.16;;;24.63;44.44
4410;BME280;2218;51.408;7.208;2023-07-13T07:23:32;99814.63;;;24.49;44.54
4410;BME280;2218;51.408;7.208;2023-07-13T07:25:59;99815.63;;;24.08;45.67
4410;BME280;2218;51.408;7.208;2023-07-13T07:28:28;99830.63;;;24.19;45.93
4410;BME280;2218;51.408;7.208;2023-07-13T07:30:57;99823.16;;;24.43;44.87
4410;BME280;2218;51.408;7.208;2023-07-13T07:33:25;99832.28;;;24.20;45.48
4410;BME280;2218;51.408;7.208;2023-07-13T07:35:52;99826.97;;;24.20;45.55
4410;BME280;2218;51.408;7.208;2023-07-13T07:38:19;99830.91;;;24.25;45.51
4410;BME280;2218;51.408;7.208;2023-07-13T07:40:47;99830.44;;;24.51;45.03
4410;BME280;2218;51.408;7.208;2023-07-13T07:43:14;99831.72;;;24.76;44.01
4410;BME280;2218;51.408;7.208;2023-07-13T07:45:44;99823.75;;;24.86;43.96
4410;BME280;2218;51.408;7.208;2023-07-13T07:48:11;99824.31;;;24.89;44.18
4410;BME280;2218;51.408;7.208;2023-07-13T07:50:39;99825.72;;;24.93;44.16
4410;BME280;2218;51.408;7.208;2023-07-13T07:53:06;99836.09;;;24.77;44.70
4410;BME280;2218;51.408;7.208;2023-07-13T07:55:36;99824.59;;;24.86;44.29
4410;BME280;2218;51.408;7.208;2023-07-13T07:58:05;99829.81;;;24.28;45.73
4410;BME280;2218;51.408;7.208;2023-07-13T08:00:32;99836.50;;;23.82;47.10
4410;BME280;2218;51.408;7.208;2023-07-13T08:03:00;99831.13;;;24.43;45.56
4410;BME280;2218;51.408;7.208;2023-07-13T08:05:27;99831.84;;;24.65;45.15
4410;BME280;2218;51.408;7.208;2023-07-13T08:07:55;99830.03;;;24.75;44.67
4410;BME280;2218;51.408;7.208;2023-07-13T08:10:22;99826.81;;;24.81;44.78
4410;BME280;2218;51.408;7.208;2023-07-13T08:12:48;99828.22;;;24.85;44.83
4410;BME280;2218;51.408;7.208;2023-07-13T08:15:17;99825.16;;;24.90;45.25
4410;BME280;2218;51.408;7.208;2023-07-13T08:17:47;99827.53;;;24.93;45.11
4410;BME280;2218;51.408;7.208;2023-07-13T08:20:16;99825.47;;;24.96;45.17
4410;BME280;2218;51.408;7.208;2023-07-13T08:22:43;99824.31;;;24.99;45.22
4410;BME280;2218;51.408;7.208;2023-07-13T08:25:10;99818.84;;;25.00;45.13
4410;BME280;2218;51.408;7.208;2023-07-13T08:27:37;99828.53;;;25.01;44.79
4410;BME280;2218;51.408;7.208;2023-07-13T08:30:05;99819.56;;;25.02;44.69
4410;BME280;2218;51.408;7.208;2023-07-13T08:32:33;99819.41;;;25.04;44.77
4410;BME280;2218;51.408;7.208;2023-07-13T08:35:00;99821.25;;;25.04;44.84
4410;BME280;2218;51.408;7.208;2023-07-13T08:37:29;99829.22;;;25.04;44.89
4410;BME280;2218;51.408;7.208;2023-07-13T08:39:55;99828.38;;;25.03;44.74
4410;BME280;2218;51.408;7.208;2023-07-13T08:42:35;99825.88;;;25.01;44.63
4410;BME280;2218;51.408;7.208;2023-07-13T08:45:14;99823.22;;;25.01;44.36
4410;BME280;2218;51.408;7.208;2023-07-13T08:47:49;99824.31;;;24.99;44.52
4410;BME280;2218;51.408;7.208;2023-07-13T08:50:25;99822.91;;;25.05;44.55
4410;BME280;2218;51.408;7.208;2023-07-13T08:52:56;99823.66;;;25.07;44.68
4410;BME280;2218;51.408;7.208;2023-07-13T08:55:29;99818.19;;;25.08;44.58
4410;BME280;2218;51.408;7.208;2023-07-13T08:58:06;99817.06;;;25.11;44.70
4410;BME280;2218;51.408;7.208;2023-07-13T09:00:44;99813.44;;;25.12;44.66
4410;BME280;2218;51.408;7.208;2023-07-13T09:03:22;99826.44;;;25.15;44.82
4410;BME280;2218;51.408;7.208;2023-07-13T09:05:56;99819.19;;;25.17;44.40
4410;BME280;2218;51.408;7.208;2023-07-13T09:08:43;99823.78;;;25.15;44.54
4410;BME280;2218;51.408;7.208;2023-07-13T09:11:36;99822.78;;;25.16;44.45
4410;BME280;2218;51.408;7.208;2023-07-13T09:14:32;99828.81;;;25.18;44.36
4410;BME280;2218;51.408;7.208;2023-07-13T09:17:04;99821.00;;;25.16;44.22
4410;BME280;2218;51.408;7.208;2023-07-13T09:19:34;99819.28;;;25.15;44.42
4410;BME280;2218;51.408;7.208;2023-07-13T09:22:05;99826.16;;;25.18;44.21
4410;BME280;2218;51.408;7.208;2023-07-13T09:24:41;99825.19;;;25.19;44.18
4410;BME280;2218;51.408;7.208;2023-07-13T09:27:19;99827.16;;;25.17;44.46
4410;BME280;2218;51.408;7.208;2023-07-13T09:29:53;99824.19;;;25.20;44.32
4410;BME280;2218;51.408;7.208;2023-07-13T09:32:25;99834.97;;;25.18;44.04
4410;BME280;2218;51.408;7.208;2023-07-13T09:34:53;99825.44;;;25.16;44.18
4410;BME280;2218;51.408;7.208;2023-07-13T09:37:23;99834.72;;;25.12;44.55
4410;BME280;2218;51.408;7.208;2023-07-13T09:39:58;99829.25;;;25.13;44.18
4410;BME280;2218;51.408;7.208;2023-07-13T09:42:26;99830.34;;;25.11;44.17
4410;BME280;2218;51.408;7.208;2023-07-13T09:44:57;99819.59;;;25.12;44.19
4410;BME280;2218;51.408;7.208;2023-07-13T09:47:26;99832.19;;;25.10;44.01
4410;BME280;2218;51.408;7.208;2023-07-13T09:49:57;99839.88;;;25.13;44.17
4410;BME280;2218;51.408;7.208;2023-07-13T09:52:26;99834.00;;;25.10;44.22
4410;BME280;2218;51.408;7.208;2023-07-13T09:54:56;99839.31;;;25.10;43.79
4410;BME280;2218;51.408;7.208;2023-07-13T09:57:27;99832.56;;;25.06;44.33
4410;BME280;2218;51.408;7.208;2023-07-13T09:59:55;99832.47;;;25.07;44.40
4410;BME280;2218;51.408;7.208;2023-07-13T10:02:29;99833.88;;;25.11;44.37
4410;BME280;2218;51.408;7.208;2023-07-13T10:05:00;99837.22;;;25.13;43.94
4410;BME280;2218;51.408;7.208;2023-07-13T10:07:30;99835.56;;;25.12;44.38
4410;BME280;2218;51.408;7.208;2023-07-13T10:10:01;99841.00;;;25.11;44.22
4410;BME280;2218;51.408;7.208;2023-07-13T10:12:30;99838.47;;;25.09;44.27
4410;BME280;2218;51.408;7.208;2023-07-13T10:15:03;99840.47;;;25.07;44.24
4410;BME280;2218;51.408;7.208;2023-07-13T10:17:35;99845.31;;;25.02;44.38
4410;BME280;2218;51.408;7.208;2023-07-13T10:20:05;99838.88;;;25.05;44.18
4410;BME280;2218;51.408;7.208;2023-07-13T10:22:45;99844.78;;;25.08;44.12
4410;BME280;2218;51.408;7.208;2023-07-13T10:25:22;99849.28;;;25.08;44.21
4410;BME280;2218;51.408;7.208;2023-07-13T10:27:55;99851.19;;;25.06;44.30
4410;BME280;2218;51.408;7.208;2023-07-13T10:30:29;99848.09;;;25.00;44.41
4410;BME280;2218;51.408;7.208;2023-07-13T10:33:01;99851.75;;;24.99;44.15
4410;BME280;2218;51.408;7.208;2023-07-13T10:35:31;99851.19;;;25.06;44.30
4410;BME280;2218;51.408;7.208;2023-07-13T10:38:02;99850.50;;;25.04;44.23
4410;BME280;2218;51.408;7.208;2023-07-13T10:40:39;99841.53;;;25.05;44.56
4410;BME280;2218;51.408;7.208;2023-07-13T10:43:18;99841.53;;;25.05;44.41
4410;BME280;2218;51.408;7.208;2023-07-13T10:45:48;99856.09;;;25.10;44.18
4410;BME280;2218;51.408;7.208;2023-07-13T10:48:16;99848.28;;;25.09;44.00
4410;BME280;2218;51.408;7.208;2023-07-13T10:50:49;99861.50;;;24.70;44.30
4410;BME280;2218;51.408;7.208;2023-07-13T10:53:22;99857.88;;;24.81;44.46
4410;BME280;2218;51.408;7.208;2023-07-13T10:56:00;99861.38;;;24.91;43.98
4410;BME280;2218;51.408;7.208;2023-07-13T10:58:34;99864.34;;;24.97;44.00
4410;BME280;2218;51.408;7.208;2023-07-13T11:01:10;99863.50;;;24.97;44.13
4410;BME280;2218;51.408;7.208;2023-07-13T11:03:50;99874.16;;;24.87;44.49
4410;BME280;2218;51.408;7.208;2023-07-13T11:06:36;99878.63;;;24.96;44.08
4410;BME280;2218;51.408;7.208;2023-07-13T11:09:30;99874.28;;;24.95;43.94
4410;BME280;2218;51.408;7.208;2023-07-13T11:12:00;99872.19;;;24.89;44.03
4410;BME280;2218;51.408;7.208;2023-07-13T11:14:33;99863.50;;;24.97;44.08
4410;BME280;2218;51.408;7.208;2023-07-13T11:17:37;99864.78;;;25.02;44.17
4410;BME280;2218;51.408;7.208;2023-07-13T11:20:36;99867.13;;;25.06;44.08
4410;BME280;2218;51.408;7.208;2023-07-13T11:23:19;99867.97;;;25.06;44.10
4410;BME280;2218;51.408;7.208;2023-07-13T11:25:47;99874.19;;;25.07;44.24
4410;BME280;2218;51.408;7.208;2023-07-13T11:28:24;99870.53;;;25.08;44.23
4410;BME280;2218;51.408;7.208;2023-07-13T11:31:15;99871.28;;;24.60;44.35
4410;BME280;2218;51.408;7.208;2023-07-13T11:34:01;99868.72;;;24.39;44.29
4410;BME280;2218;51.408;7.208;2023-07-13T11:36:36;99874.38;;;24.65;43.95
4410;BME280;2218;51.408;7.208;2023-07-13T11:39:17;99865.44;;;24.75;43.75
4410;BME280;2218;51.408;7.208;2023-07-13T11:41:51;99869.09;;;24.84;43.63
4410;BME280;2218;51.408;7.208;2023-07-13T11:44:25;99865.03;;;24.90;43.39
4410;BME280;2218;51.408;7.208;2023-07-13T11:46:55;99863.22;;;24.90;43.57
4410;BME280;2218;51.408;7.208;2023-07-13T11:49:25;99862.66;;;24.77;43.71
4410;BME280;2218;51.408;7.208;2023-07-13T11:51:53;99856.75;;;24.64;44.08
4410;BME280;2218;51.408;7.208;2023-07-13T11:54:26;99850.03;;;24.60;44.45
4410;BME280;2218;51.408;7.208;2023-07-13T11:56:58;99848.38;;;24.59;44.29
4410;BME280;2218;51.408;7.208;2023-07-13T11:59:30;99856.50;;;24.67;43.64
4410;BME280;2218;51.408;7.208;2023-07-13T12:01:59;99850.31;;;24.76;43.91
4410;BME280;2218;51.408;7.208;2023-07-13T12:04:31;99838.88;;;24.85;43.69
4410;BME280;2218;51.408;7.208;2023-07-13T12:07:06;99829.63;;;24.89;43.38
4410;BME280;2218;51.408;7.208;2023-07-13T12:09:35;99839.69;;;24.76;43.81
4410;BME280;2218;51.408;7.208;2023-07-13T12:12:08;99833.28;;;24.79;43.50
4410;BME280;2218;51.408;7.208;2023-07-13T12:14:38;99845.88;;;24.67;43.18
4410;BME280;2218;51.408;7.208;2023-07-13T12:17:13;99840.25;;;24.70;42.99
4410;BME280;2218;51.408;7.208;2023-07-13T12:19:42;99829.06;;;24.76;42.81
4410;BME280;2218;51.408;7.208;2023-07-13T12:22:12;99841.66;;;24.74;42.03
4410;BME280;2218;51.408;7.208;2023-07-13T12:24:41;99838.72;;;24.58;42.64
4410;BME280;2218;51.408;7.208;2023-07-13T12:27:20;99837.69;;;24.39;42.05
4410;BME280;2218;51.408;7.208;2023-07-13T12:29:58;99849.06;;;24.20;42.07
4410;BME280;2218;51.408;7.208;2023-07-13T12:32:27;99830.94;;;24.35;41.76
4410;BME280;2218;51.408;7.208;2023-07-13T12:35:14;99844.13;;;24.46;42.30
4410;BME280;2218;51.408;7.208;2023-07-13T12:37:42;99838.41;;;24.61;41.85
4410;BME280;2218;51.408;7.208;2023-07-13T12:40:15;99833.09;;;24.51;41.22
4410;BME280;2218;51.408;7.208;2023-07-13T12:42:47;99834.88;;;24.41;41.74
4410;BME280;2218;51.408;7.208;2023-07-13T12:45:20;99834.66;;;24.54;41.78
4410;BME280;2218;51.408;7.208;2023-07-13T12:47:53;99840.53;;;24.57;41.84
4410;BME280;2218;51.408;7.208;2023-07-13T12:50:24;99838.56;;;24.59;41.70
4410;BME280;2218;51.408;7.208;2023-07-13T12:53:02;99837.44;;;24.52;42.40
4410;BME280;2218;51.408;7.208;2023-07-13T12:55:30;99841.78;;;24.53;42.12
4410;BME280;2218;51.408;7.208;2023-07-13T12:58:03;99839.38;;;24.50;42.25
4410;BME280;2218;51.408;7.208;2023-07-13T13:00:35;99839.69;;;24.57;42.44
4410;BME280;2218;51.408;7.208;2023-07-13T13:03:15;99830.56;;;24.49;42.33
4410;BME280;2218;51.408;7.208;2023-07-13T13:05:46;99842.34;;;24.66;42.09
4410;BME280;2218;51.408;7.208;2023-07-13T13:08:14;99840.50;;;24.47;42.07
4410;BME280;2218;51.408;7.208;2023-07-13T13:10:41;99841.22;;;24.49;41.74
4410;BME280;2218;51.408;7.208;2023-07-13T13:13:08;99837.13;;;24.45;41.34
4410;BME280;2218;51.408;7.208;2023-07-13T13:15:36;99835.69;;;24.32;41.16
4410;BME280;2218;51.408;7.208;2023-07-13T13:18:15;99841.41;;;24.27;41.12
4410;BME280;2218;51.408;7.208;2023-07-13T13:20:43;99843.19;;;24.47;40.90
4410;BME280;2218;51.408;7.208;2023-07-13T13:23:13;99855.91;;;24.54;40.82
4410;BME280;2218;51.408;7.208;2023-07-13T13:25:44;99857.31;;;24.58;41.30
4410;BME280;2218;51.408;7.208;2023-07-13T13:28:16;99864.78;;;24.33;41.44
4410;BME280;2218;51.408;7.208;2023-07-13T13:30:50;99873.66;;;24.13;42.45
4410;BME280;2218;51.408;7.208;2023-07-13T13:33:20;99866.38;;;24.45;42.34
4410;BME280;2218;51.408;7.208;2023-07-13T13:35:48;99881.34;;;24.56;41.50
4410;BME280;2218;51.408;7.208;2023-07-13T13:38:20;99882.50;;;24.63;41.87
4410;BME280;2218;51.408;7.208;2023-07-13T13:40:50;99878.44;;;24.69;41.79